logo
Search for airport 
image banner adimage banner adimage banner ad
image banner ad

KEFK - Northeast Kingdom Intl

Located in Newport, United States

ICAO - EFK, IATA - EFK

Data provided by Airmate  

General information

Coordinates: N44°53'17" W72°13'43"
Elevation is 933 feet MSL.
Magnetic variation is -17° East
View others Airports in Vermont

Operational data

Special qualification required
Current time UTC:
Current local time:
Weather
METAR: KEFK 171615Z AUTO 00000KT 10SM OVC039 19/15 A3011 RMK AO2 T01880151
View NOTAMs / SUP AIP / TFR affecting this airport [VIEW]
Communications frequencies: [VIEW]

Runways:

RWY identifierQFULength (ft)Width (ft)SurfaceLDA (ft)
0530°3996100ASPH
23210°3996100ASPH
18160°5301100ASPH
36340°5301100ASPH

Airport contact information

Address: Newport United States

Other aviation service providers

Flight schools

Lakeview Aviation, Inc

Lakeview Aviation, Inc
dano@vtlink.com+1(802)334-5001

Satellite view of KEFK